Time;durP1;ratioP1;P1;durP2;ratioP2;P2;SDS_P1;SDS_P2;PMS_P1;PMS_P2;Temp;Humidity;BMP_temperature;BMP_pressure;BME280_temperature;BME280_humidity;BME280_pressure;Samples;Min_cycle;Max_cycle;Signal;HPM_P1;HPM_P2
2022/07/03 00:00:19;;;;;;;1.27;0.90;;;20.40;94.10;;;20.95;63.63;101075.88;5230151;28;20053;-87
2022/07/03 00:02:51;;;;;;;1.30;0.75;;;20.40;94.10;;;20.93;63.36;101076.75;5229631;28;20037;-85
2022/07/03 00:05:23;;;;;;;0.93;0.80;;;20.30;94.00;;;20.90;63.07;101068.81;5229195;28;20044;-87
2022/07/03 00:07:56;;;;;;;0.80;0.80;;;20.30;94.00;;;20.90;63.00;101082.94;5231389;28;20049;-88
2022/07/03 00:10:29;;;;;;;0.70;0.70;;;20.30;94.00;;;20.81;62.77;101070.63;5230908;28;20056;-88
2022/07/03 00:13:01;;;;;;;0.80;0.80;;;20.30;94.00;;;20.77;63.70;101075.91;5222147;28;20500;-84
2022/07/03 00:15:33;;;;;;;1.92;1.00;;;20.20;94.40;;;20.70;64.03;101069.75;5203856;28;20081;-84
2022/07/03 00:18:06;;;;;;;0.90;0.80;;;20.10;94.60;;;20.64;64.27;101069.75;5227271;28;20052;-85
2022/07/03 00:20:45;;;;;;;0.95;0.85;;;20.10;94.80;;;20.61;63.98;101063.59;5211345;28;20242;-83
2022/07/03 00:23:19;;;;;;;1.55;1.20;;;20.00;94.70;;;20.58;63.89;101064.47;5211339;28;20061;-84
2022/07/03 00:25:53;;;;;;;1.17;0.93;;;20.00;94.90;;;20.55;64.24;101064.50;5211074;28;20518;-85
2022/07/03 00:28:26;;;;;;;1.05;0.73;;;20.00;95.10;;;20.52;64.74;101065.38;5228074;28;20049;-85
2022/07/03 00:30:59;;;;;;;0.98;0.85;;;20.00;95.40;;;20.44;64.85;101071.53;5227198;28;20487;-83
2022/07/03 00:33:34;;;;;;;1.20;1.00;;;19.90;95.60;;;20.37;65.68;101070.66;5210505;28;20037;-86
2022/07/03 00:36:07;;;;;;;1.00;0.90;;;19.80;96.10;;;20.31;66.20;101074.19;5208438;28;20053;-83
2022/07/03 00:38:40;;;;;;;1.40;0.88;;;19.80;96.30;;;20.25;66.78;101081.25;5209004;28;20046;-85
2022/07/03 00:41:27;;;;;;;1.15;1.00;;;19.70;96.80;;;20.15;67.06;101080.38;5209051;28;20060;-84
2022/07/03 00:43:59;;;;;;;;;;;19.70;97.10;;;20.09;67.86;101079.50;5210087;28;20064;-84
2022/07/03 00:46:31;;;;;;;1.23;0.93;;;19.50;97.60;;;20.02;68.21;101083.91;5225466;28;19921;-86
2022/07/03 00:49:07;;;;;;;0.85;0.82;;;19.50;97.90;;;19.95;68.47;101082.13;5214236;28;20048;-86
2022/07/03 00:51:41;;;;;;;1.15;1.05;;;19.40;98.10;;;19.88;68.74;101080.34;5227523;28;20063;-84
2022/07/03 00:54:17;;;;;;;1.83;0.90;;;19.40;98.40;;;19.79;69.02;101084.75;5236828;28;20113;-85
2022/07/03 00:56:55;;;;;;;0.93;0.88;;;19.30;98.70;;;19.71;68.76;101073.28;5235210;28;20048;-84
2022/07/03 00:59:27;;;;;;;1.88;1.20;;;19.20;98.70;;;19.66;69.09;101080.31;5234783;28;20047;-84
2022/07/03 01:02:06;;;;;;;1.33;1.15;;;19.20;98.80;;;19.61;69.22;101071.50;5234471;28;20076;-84
2022/07/03 01:04:47;;;;;;;0.95;0.85;;;19.10;99.00;;;19.60;70.06;101059.16;5233371;28;20137;-85
2022/07/03 01:07:34;;;;;;;1.65;1.10;;;19.10;99.50;;;19.57;70.18;101069.69;5233146;28;20048;-85
2022/07/03 01:10:12;;;;;;;;;;;19.10;99.70;;;19.55;70.72;101070.56;5250682;28;20073;-85
2022/07/03 01:13:05;;;;;;;0.85;0.85;;;19.00;99.90;;;19.51;70.96;101061.75;5232631;28;19928;-84
2022/07/03 01:15:49;;;;;;;1.75;1.08;;;19.00;99.90;;;19.47;71.10;101057.31;5223301;28;20456;-83
2022/07/03 01:18:38;;;;;;;1.13;1.10;;;19.00;99.90;;;19.46;71.28;101052.91;5212474;28;20046;-84
2022/07/03 01:21:17;;;;;;;1.23;1.02;;;18.90;99.90;;;19.42;71.03;101053.78;5212898;28;20048;-86
2022/07/03 01:24:18;;;;;;;1.20;1.10;;;18.90;99.90;;;19.43;71.28;101055.53;5211897;28;20061;-83
2022/07/03 01:26:56;;;;;;;1.45;1.13;;;18.90;99.90;;;19.39;71.37;101052.03;5212228;28;20116;-84
2022/07/03 01:29:39;;;;;;;1.88;1.30;;;18.90;99.90;;;19.34;71.77;101066.09;5211437;28;20056;-83
2022/07/03 01:32:13;;;;;;;1.15;1.02;;;18.80;99.90;;;19.28;71.76;101061.66;5211810;28;20054;-85
2022/07/03 01:34:53;;;;;;;;;;;18.80;99.90;;;19.20;72.20;101061.66;5228798;28;20053;-85
2022/07/03 01:37:29;;;;;;;1.83;0.98;;;18.70;99.90;;;19.15;72.48;101055.44;5227420;28;19920;-84
2022/07/03 01:40:05;;;;;;;1.30;1.10;;;18.70;99.90;;;19.12;73.15;101060.75;5225588;28;20053;-84
2022/07/03 01:42:42;;;;;;;1.13;0.93;;;18.60;99.90;;;19.10;73.40;101058.94;5210974;28;20137;-84
2022/07/03 01:45:16;;;;;;;1.05;1.00;;;18.60;99.90;;;19.07;73.58;101051.91;5212573;28;20044;-85
2022/07/03 01:47:50;;;;;;;1.50;1.08;;;18.60;99.90;;;19.06;73.11;101052.78;5213690;28;20060;-85
2022/07/03 01:50:24;;;;;;;2.30;1.40;;;18.60;99.90;;;19.05;72.85;101048.38;5212698;28;20045;-84
2022/07/03 01:53:00;;;;;;;1.25;1.00;;;18.50;99.90;;;19.04;72.91;101051.00;5212647;28;20530;-86
2022/07/03 01:55:34;;;;;;;2.30;1.25;;;18.60;99.90;;;19.00;72.42;101050.13;5213491;28;20125;-84
2022/07/03 01:58:07;;;;;;;1.88;1.33;;;18.50;99.90;;;18.99;72.43;101043.06;5212073;28;20045;-84
2022/07/03 02:00:54;;;;;;;1.33;1.10;;;18.50;99.90;;;19.00;72.62;101051.88;5212266;28;20053;-85
2022/07/03 02:03:29;;;;;;;1.95;1.00;;;18.50;99.90;;;18.97;73.12;101052.72;5212752;28;20055;-85
2022/07/03 02:06:08;;;;;;;1.83;1.20;;;18.50;99.90;;;18.89;73.01;101035.97;5211052;28;20088;-85
2022/07/03 02:08:56;;;;;;;0.95;0.85;;;18.50;99.90;;;18.88;73.44;101045.66;5227130;28;20140;-85
2022/07/03 02:11:29;;;;;;;;;;;18.40;99.90;;;18.85;73.43;101044.78;5212354;28;20053;-85
2022/07/03 02:14:13;;;;;;;1.55;1.27;;;18.40;99.90;;;18.84;73.11;101037.69;5213895;28;20334;-85
2022/07/03 02:16:55;;;;;;;1.92;1.15;;;18.30;99.90;;;18.85;73.07;101036.84;5212100;28;20045;-85
2022/07/03 02:19:38;;;;;;;1.17;1.08;;;18.40;99.90;;;18.85;72.85;101028.94;5212352;28;20060;-87
2022/07/03 02:22:12;;;;;;;1.63;1.10;;;18.40;99.90;;;18.81;73.03;101038.59;5212252;28;20057;-85
2022/07/03 02:24:47;;;;;;;1.42;0.90;;;18.40;99.90;;;18.78;72.99;101040.31;5212936;28;20511;-84
2022/07/03 02:27:24;;;;;;;1.20;1.10;;;18.30;99.90;;;18.74;73.29;101039.44;5213932;28;20049;-85
2022/07/03 02:30:04;;;;;;;1.05;0.95;;;18.30;99.90;;;18.69;73.58;101041.16;5212810;28;20045;-85
2022/07/03 02:32:41;;;;;;;1.83;1.15;;;18.20;99.90;;;18.65;73.80;101042.88;5211505;28;20499;-85
2022/07/03 02:35:18;;;;;;;1.30;1.00;;;18.20;99.90;;;18.60;74.17;101044.59;5210973;28;20049;-86
2022/07/03 02:38:00;;;;;;;2.33;1.35;;;18.10;99.90;;;18.56;74.59;101041.94;5212117;28;20045;-86
2022/07/03 02:40:40;;;;;;;1.73;1.20;;;18.10;99.90;;;18.54;74.79;101047.22;5211320;28;20140;-85
2022/07/03 02:43:20;;;;;;;1.63;0.98;;;18.10;99.90;;;18.52;74.84;101046.31;5213244;28;20462;-85
2022/07/03 02:49:08;;;;;;;1.90;1.27;;;18.00;99.90;;;18.40;75.18;101059.44;5225157;28;20049;-85
2022/07/03 02:51:45;;;;;;;1.73;1.23;;;18.00;99.90;;;18.34;75.56;101048.84;5212483;28;20057;-84
2022/07/03 02:54:19;;;;;;;1.58;1.17;;;17.90;99.90;;;18.28;76.10;101047.03;5213761;28;20045;-85
2022/07/03 02:57:05;;;;;;;2.65;1.45;;;17.90;99.90;;;18.26;76.48;101050.53;5211512;28;20064;-85
2022/07/03 02:59:51;;;;;;;1.48;1.10;;;17.80;99.90;;;18.24;76.70;101055.78;5211872;28;20513;-85
2022/07/03 03:02:55;;;;;;;1.25;1.15;;;17.80;99.90;;;18.21;77.29;101055.78;5211967;28;20046;-85
2022/07/03 03:05:31;;;;;;;1.20;0.98;;;17.80;99.90;;;18.16;77.29;101057.50;5211360;28;20073;-85
2022/07/03 03:08:19;;;;;;;2.25;1.10;;;17.70;99.90;;;18.13;77.60;101061.00;5213398;28;20052;-85
2022/07/03 03:10:51;;;;;;;;;;;17.70;99.90;;;18.09;77.73;101056.56;5211901;28;20140;-84
2022/07/03 03:13:32;;;;;;;2.42;1.20;;;17.70;99.90;;;18.06;77.79;101051.25;5212422;28;19921;-85
2022/07/03 03:16:07;;;;;;;1.23;1.10;;;17.70;99.90;;;18.05;77.87;101059.16;5212661;28;20531;-86
2022/07/03 03:18:42;;;;;;;2.53;1.30;;;17.60;99.90;;;18.05;77.46;101052.09;5212999;28;20049;-84
2022/07/03 03:21:19;;;;;;;1.73;1.15;;;17.60;99.90;;;18.04;77.45;101050.34;5213440;28;20049;-86
2022/07/03 03:23:53;;;;;;;2.15;1.20;;;17.60;99.90;;;18.01;77.57;101062.66;5214438;28;20513;-84
2022/07/03 03:26:30;;;;;;;1.80;1.35;;;17.60;99.90;;;17.96;77.53;101054.69;5229429;28;20046;-86
2022/07/03 03:29:02;;;;;;;2.00;1.10;;;17.60;99.90;;;17.94;77.69;101066.09;5212766;28;20045;-85
2022/07/03 03:31:34;;;;;;;1.85;1.23;;;17.50;99.90;;;17.90;77.89;101063.41;5213147;28;20069;-85
2022/07/03 03:34:10;;;;;;;3.63;1.70;;;17.50;99.90;;;17.87;77.48;101060.78;5211648;28;20048;-85
2022/07/03 03:36:42;;;;;;;2.33;1.50;;;17.50;99.90;;;17.86;77.42;101064.25;5211231;28;20051;-85
2022/07/03 03:39:15;;;;;;;2.13;1.13;;;17.50;99.90;;;17.85;77.48;101066.88;5226430;28;20041;-87
2022/07/03 03:41:47;;;;;;;1.60;1.35;;;17.40;99.90;;;17.83;77.35;101071.25;5210986;28;20447;-86
2022/07/03 03:44:19;;;;;;;1.50;1.40;;;17.40;99.90;;;17.80;78.17;101063.31;5210815;28;20037;-86
2022/07/03 03:46:52;;;;;;;1.83;1.45;;;17.40;99.90;;;17.81;78.36;101071.25;5210835;28;20053;-85
2022/07/03 03:49:25;;;;;;;1.85;1.35;;;17.40;99.90;;;17.82;78.12;101066.88;5210790;28;20061;-85
2022/07/03 03:51:58;;;;;;;3.20;1.38;;;17.40;99.90;;;17.83;78.06;101068.63;5210201;28;20423;-85
2022/07/03 03:54:30;;;;;;;2.08;1.33;;;17.40;99.90;;;17.85;77.77;101064.25;5210046;28;20053;-85
2022/07/03 03:57:20;;;;;;;2.10;1.30;;;17.40;99.90;;;17.82;77.74;101062.47;5209847;28;20060;-86
2022/07/03 03:59:53;;;;;;;1.75;1.20;;;17.40;99.90;;;17.80;77.69;101069.50;5211097;28;20044;-84
2022/07/03 04:02:25;;;;;;;1.75;1.13;;;17.40;99.90;;;17.80;77.72;101068.59;5209847;28;20060;-84
2022/07/03 04:04:58;;;;;;;2.03;1.45;;;17.40;99.90;;;17.79;77.91;101072.09;5209692;28;20443;-85
2022/07/03 04:07:30;;;;;;;2.13;1.30;;;17.40;99.90;;;17.79;78.17;101082.63;5209583;28;20052;-84
2022/07/03 04:10:03;;;;;;;1.40;1.30;;;17.40;99.90;;;17.77;78.56;101082.63;5211028;28;20046;-84
2022/07/03 04:12:35;;;;;;;1.75;1.50;;;17.40;99.90;;;17.77;78.83;101084.38;5211071;28;20060;-85
2022/07/03 04:15:08;;;;;;;2.28;1.40;;;17.40;99.90;;;17.76;79.29;101082.63;5210074;28;20049;-84
2022/07/03 04:17:40;;;;;;;2.35;1.25;;;17.40;99.90;;;17.77;79.54;101081.75;5211170;28;20258;-85
2022/07/03 04:20:14;;;;;;;2.03;1.25;;;17.40;99.90;;;17.79;79.86;101082.63;5209340;28;20669;-84
2022/07/03 04:22:48;;;;;;;1.60;1.30;;;17.40;99.90;;;17.79;79.73;101087.91;5210477;28;20057;-84
2022/07/03 04:25:20;;;;;;;1.55;1.30;;;17.40;99.90;;;17.82;79.74;101087.97;5209914;28;20057;-86
2022/07/03 04:27:52;;;;;;;2.10;1.30;;;17.40;99.90;;;17.83;79.86;101100.28;5211372;28;20069;-85
2022/07/03 04:30:25;;;;;;;1.20;1.05;;;17.40;99.90;;;17.86;80.25;101090.63;5216075;28;20045;-84
2022/07/03 04:32:57;;;;;;;3.63;1.75;;;17.50;99.90;;;17.89;79.73;101097.69;5215188;28;20633;-84
2022/07/03 04:35:30;;;;;;;3.03;1.50;;;17.50;99.90;;;17.97;79.16;101100.41;5232053;28;20065;-84
2022/07/03 04:38:02;;;;;;;3.20;1.85;;;17.60;99.90;;;17.99;78.57;101099.53;5216622;28;20045;-84
2022/07/03 04:40:34;;;;;;;3.35;1.83;;;17.60;99.90;;;18.05;78.22;101107.50;5215411;28;20049;-86
2022/07/03 04:43:06;;;;;;;2.80;1.50;;;17.60;99.90;;;18.16;78.23;101115.53;5214936;28;20049;-85
2022/07/03 04:45:39;;;;;;;2.95;1.67;;;17.70;99.90;;;18.30;77.75;101115.66;5214574;28;20593;-84
2022/07/03 04:48:11;;;;;;;2.70;1.70;;;17.90;99.90;;;18.47;77.07;101121.06;5214307;28;20458;-84
2022/07/03 04:50:44;;;;;;;4.03;2.00;;;18.00;99.90;;;18.67;76.77;101117.72;5230498;28;20057;-85
2022/07/03 04:53:16;;;;;;;2.70;1.70;;;18.20;99.90;;;19.04;76.23;101109.13;5213411;28;20046;-86
2022/07/03 04:55:48;;;;;;;5.85;2.03;;;18.40;99.90;;;19.51;74.57;101109.34;5213546;28;20141;-83
2022/07/03 04:58:21;;;;;;;3.20;1.70;;;18.80;99.90;;;19.86;71.15;101119.16;5213244;28;20388;-84
2022/07/03 05:00:53;;;;;;;3.47;1.73;;;19.10;99.90;;;20.06;69.87;101120.06;5229081;28;20080;-85
2022/07/03 05:03:25;;;;;;;4.32;1.77;;;19.40;99.90;;;20.22;68.65;101116.56;5212716;28;20522;-84
2022/07/03 05:05:59;;;;;;;3.28;1.60;;;19.60;99.90;;;20.38;68.07;101119.19;5214189;28;20041;-84
2022/07/03 05:08:31;;;;;;;4.40;1.92;;;19.80;99.90;;;20.62;67.81;101113.03;5213039;28;20045;-85
2022/07/03 05:11:03;;;;;;;3.45;2.03;;;20.00;99.90;;;21.15;66.37;101099.66;5211889;28;20053;-85
2022/07/03 05:13:35;;;;;;;3.10;1.58;;;20.40;99.90;;;21.87;63.89;101105.50;5210590;28;20045;-85
2022/07/03 05:16:07;;;;;;;3.78;1.90;;;20.90;99.20;;;22.59;60.63;101117.34;5212708;28;20558;-84
2022/07/03 05:18:39;;;;;;;3.35;1.52;;;21.50;97.70;;;23.20;58.22;101117.56;5213235;28;20046;-87
2022/07/03 05:21:13;;;;;;;2.05;1.58;;;22.10;96.30;;;23.76;55.83;101121.31;5214867;28;20049;-84
2022/07/03 05:23:45;;;;;;;2.58;1.45;;;22.60;94.60;;;24.27;54.24;101120.53;5212299;28;20060;-84
2022/07/03 05:26:17;;;;;;;1.75;1.52;;;23.10;93.40;;;24.83;52.17;101126.66;5213204;28;20530;-85
2022/07/03 05:28:49;;;;;;;4.50;1.88;;;23.60;92.00;;;25.23;50.83;101125.91;5212358;28;20053;-85
2022/07/03 05:31:21;;;;;;;4.07;1.70;;;24.10;90.30;;;25.53;49.92;101122.63;5226042;22;20050;-70
2022/07/03 05:33:53;;;;;;;3.55;1.83;;;24.40;88.10;;;25.77;49.29;101125.69;5203658;28;20513;-71
2022/07/03 05:36:27;;;;;;;2.72;1.50;;;24.70;86.10;;;25.65;48.74;101133.03;5188182;28;20046;-70
2022/07/03 05:41:48;;;;;;;3.83;1.50;;;24.50;83.10;;;24.57;50.93;101121.81;5203080;28;20049;-68
2022/07/03 05:44:20;;;;;;;3.28;1.45;;;24.00;84.50;;;24.47;51.94;101126.44;5187741;28;20042;-68
2022/07/03 05:46:52;;;;;;;3.28;1.50;;;23.80;85.90;;;24.86;51.31;101140.84;5187751;28;20049;-69
2022/07/03 05:49:25;;;;;;;2.67;1.35;;;24.00;86.20;;;25.49;49.80;101150.25;5187778;28;20402;-70
2022/07/03 05:51:58;;;;;;;2.72;1.30;;;24.30;84.50;;;26.01;48.63;101146.47;5170158;28;20461;-68
2022/07/03 05:54:30;;;;;;;3.47;1.50;;;24.80;83.00;;;26.57;47.07;101151.38;5211106;28;20071;-69
2022/07/03 05:57:03;;;;;;;3.60;1.50;;;25.30;81.10;;;27.15;46.06;101166.78;5187897;28;20056;-69
2022/07/03 05:59:35;;;;;;;3.42;1.30;;;25.70;79.50;;;27.68;44.59;101156.34;5187355;28;20042;-68
2022/07/03 06:02:08;;;;;;;3.30;1.38;;;26.30;77.10;;;28.16;43.19;101169.09;5187434;28;20081;-68
2022/07/03 06:04:40;;;;;;;3.53;1.40;;;26.70;74.80;;;28.42;42.45;101170.09;5187427;28;20042;-70
2022/07/03 06:07:16;;;;;;;1.67;1.20;;;27.10;73.10;;;28.60;42.28;101158.75;5187477;28;20050;-69
2022/07/03 06:09:48;;;;;;;1.90;1.20;;;27.30;72.30;;;28.74;41.80;101171.69;5187293;28;20495;-68
2022/07/03 06:12:20;;;;;;;2.92;1.20;;;27.40;71.10;;;28.88;41.70;101164.91;5187467;28;20135;-68
2022/07/03 06:14:53;;;;;;;3.35;1.40;;;27.60;70.30;;;29.04;40.98;101159.03;5202393;28;20549;-68
2022/07/03 06:17:25;;;;;;;2.38;1.30;;;27.70;69.20;;;29.20;40.78;101168.28;5187180;28;20041;-68
2022/07/03 06:19:57;;;;;;;1.77;1.25;;;27.80;68.70;;;29.43;40.60;101157.56;5186871;28;20041;-70
2022/07/03 06:22:30;;;;;;;2.42;1.27;;;28.10;68.40;;;29.64;39.73;101161.25;5186707;28;20046;-69
2022/07/03 06:25:03;;;;;;;2.95;1.20;;;28.30;67.20;;;29.84;39.61;101157.81;5186748;28;20046;-69
2022/07/03 06:27:36;;;;;;;2.38;1.25;;;28.50;66.40;;;30.06;39.32;101168.59;5186840;28;20042;-70
2022/07/03 06:30:10;;;;;;;2.50;1.20;;;28.70;66.10;;;30.23;39.54;101165.22;5186896;28;20057;-68
2022/07/03 06:32:42;;;;;;;3.22;1.20;;;28.80;66.00;;;30.41;38.86;101163.59;5186644;28;20053;-69
2022/07/03 06:35:14;;;;;;;2.22;1.00;;;29.00;65.50;;;30.44;38.48;101175.09;5186576;28;20424;-69
2022/07/03 06:37:48;;;;;;;2.38;1.30;;;29.10;64.70;;;30.46;38.74;101178.59;5169162;28;20046;-69
2022/07/03 06:40:20;;;;;;;2.08;1.13;;;29.10;64.50;;;30.43;38.81;101175.16;5185468;28;20394;-70
2022/07/03 06:42:52;;;;;;;4.05;1.15;;;29.10;64.20;;;30.43;38.94;101178.72;5168923;28;20077;-71
2022/07/03 06:45:24;;;;;;;3.95;1.38;;;29.10;64.90;;;30.52;38.77;101178.34;5169212;28;20068;-68
2022/07/03 06:47:56;;;;;;;3.85;1.13;;;29.10;63.90;;;30.50;38.29;101166.75;5186552;28;20042;-71
2022/07/03 06:50:29;;;;;;;2.65;1.40;;;29.10;63.60;;;30.33;38.52;101176.50;5198400;28;20118;-71
2022/07/03 06:53:02;;;;;;;2.70;1.42;;;29.00;63.10;;;30.30;39.48;101176.59;5186267;28;20046;-69
2022/07/03 06:55:35;;;;;;;2.38;1.10;;;28.90;64.30;;;30.51;39.14;101176.56;5177867;28;20037;-70
2022/07/03 06:58:07;;;;;;;2.85;1.27;;;29.10;64.60;;;30.79;38.58;101173.63;5172177;28;20042;-69
2022/07/03 07:00:39;;;;;;;3.38;1.48;;;29.30;64.10;;;30.80;38.95;101175.38;5166394;28;20049;-69
2022/07/03 07:03:11;;;;;;;3.35;1.42;;;29.40;63.90;;;30.96;39.02;101186.34;5166392;28;20117;-69
2022/07/03 07:05:44;;;;;;;3.35;1.30;;;29.50;64.00;;;31.08;38.47;101182.22;5177571;28;20496;-70
2022/07/03 07:08:17;;;;;;;3.85;1.23;;;29.60;63.20;;;31.17;38.22;101186.31;5182620;28;20502;-70
2022/07/03 07:10:49;;;;;;;4.15;1.17;;;29.70;63.00;;;31.31;37.06;101184.81;5175482;28;20044;-69
2022/07/03 07:13:21;;;;;;;2.10;1.35;;;29.80;61.80;;;31.26;36.81;101180.56;5172242;28;20050;-70
2022/07/03 07:15:54;;;;;;;5.38;1.20;;;29.80;61.20;;;31.27;37.18;101183.19;5185958;28;20121;-70
2022/07/03 07:18:26;;;;;;;2.85;1.00;;;29.80;61.30;;;31.38;36.26;101180.03;5185865;28;20042;-69
2022/07/03 07:20:58;;;;;;;2.13;1.33;;;29.90;60.20;;;31.51;36.11;101181.22;5185980;28;20042;-69
2022/07/03 07:23:32;;;;;;;3.17;1.30;;;30.00;60.20;;;31.48;36.00;101178.63;5186071;28;20042;-71
2022/07/03 07:26:04;;;;;;;3.13;1.15;;;30.00;59.70;;;31.48;35.42;101178.63;5186011;28;20104;-70
2022/07/03 07:28:37;;;;;;;2.50;1.20;;;30.00;58.90;;;31.47;35.99;101174.19;5196183;28;20064;-69
2022/07/03 07:31:09;;;;;;;3.83;1.15;;;30.00;59.60;;;31.74;35.03;101163.94;5199061;28;20096;-70
2022/07/03 07:33:41;;;;;;;2.00;0.90;;;30.20;58.70;;;31.44;35.38;101168.97;5193988;28;20041;-70
2022/07/03 07:36:14;;;;;;;1.15;0.80;;;30.00;58.60;;;30.94;35.75;101171.22;5193710;28;20045;-69
2022/07/03 07:38:47;;;;;;;2.38;1.20;;;29.80;58.80;;;30.36;36.83;101169.16;5176225;28;20057;-67
2022/07/03 07:41:19;;;;;;;2.47;1.00;;;29.30;59.00;;;29.71;37.72;101161.91;5179982;28;20042;-67
2022/07/03 07:43:52;;;;;;;1.73;0.90;;;28.80;59.80;;;29.42;39.07;101166.56;5185727;28;20092;-68
2022/07/03 07:46:24;;;;;;;1.65;0.75;;;28.40;61.30;;;29.35;39.44;101164.16;5198229;28;20116;-64
2022/07/03 07:48:57;;;;;;;5.03;1.30;;;28.30;61.80;;;29.28;39.18;101157.25;5198772;28;20071;-67
2022/07/03 07:51:29;;;;;;;2.60;1.20;;;28.10;61.70;;;29.23;38.92;101162.81;5205808;28;20055;-74
2022/07/03 07:54:02;;;;;;;2.53;0.98;;;28.10;61.80;;;29.13;39.00;101154.19;5198324;28;20395;-73
2022/07/03 07:56:34;;;;;;;3.53;1.17;;;28.00;61.90;;;28.99;39.45;101161.00;5200948;28;20046;-73
2022/07/03 07:59:06;;;;;;;1.77;0.90;;;27.80;62.20;;;28.85;39.42;101159.66;5200100;28;20124;-69
2022/07/03 08:07:18;;;;;;;3.65;1.20;;;27.70;62.90;;;29.20;39.05;101154.84;5189452;28;20124;-67
2022/07/03 08:09:53;;;;;;;2.58;1.20;;;27.70;62.10;;;29.36;38.48;101149.81;5185390;28;20045;-67
2022/07/03 08:12:25;;;;;;;2.53;1.10;;;27.80;62.70;;;29.65;38.30;101152.28;5185118;28;20041;-66
2022/07/03 08:14:57;;;;;;;2.35;1.00;;;27.90;62.10;;;30.10;37.25;101153.22;5167606;28;20050;-65
2022/07/03 08:17:29;;;;;;;3.15;0.90;;;28.10;61.50;;;30.54;36.02;101149.56;5185079;28;20439;-63
2022/07/03 08:20:01;;;;;;;1.67;0.90;;;28.40;60.40;;;31.03;35.57;101154.63;5184744;28;20474;-61
2022/07/03 08:22:33;;;;;;;1.58;0.80;;;28.60;60.20;;;31.33;35.57;101168.56;5184810;28;20042;-64
2022/07/03 08:25:07;;;;;;;1.20;0.60;;;28.80;60.30;;;31.95;35.14;101156.69;5185209;28;20054;-66
2022/07/03 08:27:40;;;;;;;2.72;0.90;;;29.10;60.40;;;32.65;33.71;101158.56;5185296;28;20128;-66
2022/07/03 08:30:17;;;;;;;3.45;1.00;;;29.40;59.30;;;33.36;32.99;101163.84;5167590;28;20410;-67
2022/07/03 08:32:54;;;;;;;2.05;0.90;;;29.70;59.10;;;34.06;32.02;101159.06;5185242;28;20057;-71
2022/07/03 08:35:27;;;;;;;2.20;0.90;;;30.10;58.50;;;34.80;31.00;101167.31;5184932;28;20050;-68
2022/07/03 08:37:59;;;;;;;2.20;0.70;;;30.50;58.10;;;35.57;29.52;101173.44;5185070;28;20490;-70
2022/07/03 08:40:33;;;;;;;1.08;0.80;;;30.90;57.00;;;36.78;28.72;101171.75;5184793;28;20053;-70
2022/07/03 08:43:06;;;;;;;4.95;1.20;;;31.50;56.60;;;37.74;26.98;101166.72;5185119;28;20045;-65
2022/07/03 08:45:39;;;;;;;2.15;0.90;;;32.30;54.50;;;38.58;26.29;101170.47;5184747;28;20046;-66
2022/07/03 08:48:12;;;;;;;2.33;1.00;;;33.00;53.90;;;39.25;25.04;101171.53;5185053;28;20048;-64
2022/07/03 08:50:45;;;;;;;2.40;0.98;;;33.80;52.30;;;39.92;24.35;101176.13;5184833;28;20057;-65
2022/07/03 08:53:18;;;;;;;3.60;0.90;;;34.60;51.10;;;40.48;23.43;101169.66;5184932;28;20080;-64
2022/07/03 08:55:52;;;;;;;;;;;35.20;50.00;;;40.80;23.35;101161.41;5185204;28;20056;-65
2022/07/03 08:58:25;;;;;;;1.90;0.80;;;35.70;49.20;;;41.28;22.74;101171.78;5184982;28;19925;-64
2022/07/03 09:00:57;;;;;;;1.42;0.80;;;36.10;48.00;;;41.26;22.75;101165.59;5167226;28;20101;-64
2022/07/03 09:03:32;;;;;;;2.22;0.80;;;36.30;48.30;;;41.59;22.19;101170.78;5184713;28;20503;-64
2022/07/03 09:06:04;;;;;;;1.42;0.82;;;36.60;47.20;;;41.94;22.20;101166.75;5184525;28;20166;-64
2022/07/03 09:08:38;;;;;;;1.13;0.73;;;36.90;47.40;;;42.20;22.20;101170.72;5184601;28;20042;-64
2022/07/03 09:11:12;;;;;;;2.17;1.00;;;37.10;47.40;;;42.15;22.37;101175.75;5184611;28;20041;-64
2022/07/03 09:13:44;;;;;;;1.55;0.80;;;37.20;47.40;;;41.93;22.93;101167.75;5185112;28;20574;-65
2022/07/03 09:16:17;;;;;;;2.00;0.70;;;37.10;47.40;;;41.91;22.83;101169.75;5188418;28;20046;-64
2022/07/03 09:18:49;;;;;;;2.65;0.90;;;37.10;47.70;;;41.98;22.64;101169.06;5188571;28;20506;-64
2022/07/03 09:21:21;;;;;;;3.10;1.20;;;37.20;47.40;;;41.92;22.78;101164.13;5188214;28;20126;-68
2022/07/03 09:23:53;;;;;;;3.53;1.35;;;37.20;47.00;;;41.56;23.09;101165.59;5188360;28;20570;-69
2022/07/03 09:26:28;;;;;;;2.00;1.20;;;37.10;47.20;;;40.93;23.63;101165.69;5170404;28;20580;-68
2022/07/03 09:29:00;;;;;;;1.92;0.88;;;36.80;47.40;;;40.35;24.64;101161.59;5188298;28;20053;-68
2022/07/03 09:31:33;;;;;;;3.42;1.15;;;36.50;47.90;;;39.78;24.99;101162.75;5188255;28;20042;-67
2022/07/03 09:34:07;;;;;;;2.13;1.00;;;36.20;48.00;;;39.24;24.98;101167.06;5188152;28;20568;-67
2022/07/03 09:36:45;;;;;;;2.70;1.05;;;35.90;48.00;;;38.53;25.89;101158.06;5187846;28;20049;-69
2022/07/03 09:39:21;;;;;;;1.90;1.02;;;35.70;48.30;;;37.65;27.12;101156.53;5187967;28;20108;-68
2022/07/03 09:41:57;;;;;;;1.95;0.90;;;35.20;49.00;;;36.55;28.50;101158.84;5187768;28;20034;-66
2022/07/03 09:44:35;;;;;;;3.28;1.13;;;34.60;49.50;;;35.35;29.91;101161.22;5187866;28;20061;-65
2022/07/03 09:47:14;;;;;;;1.70;1.00;;;33.80;50.30;;;34.41;31.14;101154.28;5187696;28;20052;-69
2022/07/03 09:49:53;;;;;;;1.80;1.00;;;33.20;51.50;;;33.94;31.94;101148.97;5187902;28;20046;-68
2022/07/03 09:52:33;;;;;;;1.92;0.90;;;32.60;52.30;;;33.63;32.69;101136.28;5187660;28;20042;-69
2022/07/03 09:55:20;;;;;;;2.28;1.10;;;32.40;53.10;;;33.32;33.25;101134.34;5187351;28;20128;-68
2022/07/03 09:58:01;;;;;;;2.13;1.10;;;32.00;53.50;;;32.98;33.84;101141.59;5187670;28;20049;-69
2022/07/03 10:00:35;;;;;;;1.33;0.90;;;31.80;54.10;;;32.71;34.28;101134.91;5187618;28;20034;-68
2022/07/03 10:03:10;;;;;;;1.70;0.90;;;31.50;54.50;;;32.47;34.42;101140.63;5187691;28;20716;-69
2022/07/03 10:05:43;;;;;;;1.42;1.00;;;31.30;54.50;;;32.41;34.81;101135.56;5169845;28;20517;-67
2022/07/03 10:08:17;;;;;;;1.15;1.00;;;31.20;54.80;;;32.47;34.84;101135.22;5187433;28;20064;-69
2022/07/03 10:10:50;;;;;;;1.48;0.98;;;31.10;55.20;;;32.46;34.33;101133.47;5187335;28;20423;-68
2022/07/03 10:13:24;;;;;;;1.08;0.80;;;31.10;54.70;;;32.30;34.31;101137.91;5170046;28;20049;-67
2022/07/03 10:15:57;;;;;;;1.10;0.90;;;31.10;54.50;;;32.05;34.42;101130.16;5187199;28;20461;-67
2022/07/03 10:18:32;;;;;;;2.08;1.10;;;30.80;54.50;;;31.57;34.89;101140.50;5187127;28;20038;-67
2022/07/03 10:21:07;;;;;;;1.35;0.90;;;30.50;54.60;;;31.13;35.69;101137.13;5186958;28;20068;-68
2022/07/03 10:23:39;;;;;;;1.42;1.00;;;30.10;55.30;;;30.82;36.60;101134.06;5186999;28;20132;-66
2022/07/03 10:26:12;;;;;;;2.17;1.00;;;29.80;56.20;;;30.72;37.07;101130.91;5185756;28;20045;-70
2022/07/03 10:28:46;;;;;;;1.98;1.00;;;29.60;56.90;;;30.85;37.21;101132.13;5185797;28;20077;-72
2022/07/03 10:31:19;;;;;;;1.25;0.95;;;29.60;57.40;;;30.97;36.59;101134.28;5186866;28;20080;-71
2022/07/03 10:33:53;;;;;;;1.98;0.98;;;29.70;56.80;;;31.02;36.30;101134.06;5186916;28;20049;-70
2022/07/03 10:36:25;;;;;;;2.55;0.90;;;29.70;56.50;;;31.15;36.22;101139.75;5187051;28;20094;-72
2022/07/03 10:39:00;;;;;;;1.75;0.80;;;29.90;56.60;;;31.22;36.10;101131.31;5186883;28;20052;-70
2022/07/03 10:44:46;;;;;;;2.28;0.98;;;30.00;55.90;;;31.30;35.56;101120.25;5186822;28;20049;-71
2022/07/03 10:47:41;;;;;;;1.63;0.80;;;30.10;55.70;;;31.36;35.53;101122.63;5202040;28;20526;-70
2022/07/03 10:50:17;;;;;;;0.75;0.75;;;30.10;55.80;;;31.45;35.56;101124.91;5186658;28;20406;-71
2022/07/03 10:52:50;;;;;;;3.47;1.10;;;30.20;55.70;;;31.44;36.12;101117.78;5201846;28;20520;-70
2022/07/03 10:55:22;;;;;;;1.20;1.00;;;30.20;56.10;;;31.48;35.99;101119.38;5186519;28;20049;-71
2022/07/03 10:58:10;;;;;;;1.45;0.90;;;30.30;56.00;;;31.52;35.33;101120.97;5186598;28;20045;-70